createdAt,value
2023-11-03T00:00:35.608Z,11.00
2023-11-03T00:03:07.333Z,11.10
2023-11-03T00:05:36.740Z,11.00
2023-11-03T00:08:04.406Z,11.00
2023-11-03T00:10:31.736Z,11.00
2023-11-03T00:12:58.520Z,10.90
2023-11-03T00:15:25.357Z,11.00
2023-11-03T00:17:52.215Z,10.90
2023-11-03T00:20:19.294Z,10.80
2023-11-03T00:22:46.138Z,10.80
2023-11-03T00:25:15.542Z,10.80
2023-11-03T00:27:47.855Z,10.70
2023-11-03T00:30:15.259Z,10.80
2023-11-03T00:32:42.363Z,10.90
2023-11-03T00:35:10.276Z,10.80
2023-11-03T00:37:38.999Z,10.80
2023-11-03T00:40:06.351Z,10.80
2023-11-03T00:42:33.423Z,10.70
2023-11-03T00:45:00.331Z,10.70
2023-11-03T00:47:27.122Z,10.60
2023-11-03T00:49:53.986Z,10.60
2023-11-03T00:52:20.832Z,10.70
2023-11-03T00:54:47.718Z,10.60
2023-11-03T00:57:14.521Z,10.70
2023-11-03T00:59:42.228Z,10.70
2023-11-03T01:02:10.750Z,10.70
2023-11-03T01:04:37.781Z,10.70
2023-11-03T01:07:05.617Z,10.60
2023-11-03T01:09:32.463Z,10.70
2023-11-03T01:11:59.230Z,10.70
2023-11-03T01:14:26.097Z,10.70
2023-11-03T01:16:53.170Z,10.60
2023-11-03T01:19:22.336Z,10.60
2023-11-03T01:21:49.324Z,10.60
2023-11-03T01:24:16.289Z,10.60
2023-11-03T01:26:44.505Z,10.60
2023-11-03T01:29:13.501Z,10.60
2023-11-03T01:31:40.456Z,10.60
2023-11-03T01:34:07.947Z,10.60
2023-11-03T01:36:36.787Z,10.60
2023-11-03T01:39:06.787Z,10.70
2023-11-03T01:41:33.699Z,10.70
2023-11-03T01:44:13.227Z,10.70
2023-11-03T01:46:41.943Z,10.70
2023-11-03T01:49:10.362Z,10.70
2023-11-03T01:51:38.230Z,10.80
2023-11-03T01:54:06.268Z,10.70
2023-11-03T01:56:35.971Z,10.70
2023-11-03T01:59:05.134Z,10.70
2023-11-03T02:01:33.370Z,10.60
2023-11-03T02:04:00.423Z,10.70
2023-11-03T02:06:27.262Z,10.70
2023-11-03T02:08:54.485Z,10.80
2023-11-03T02:11:32.159Z,10.80
2023-11-03T02:13:59.356Z,10.70
2023-11-03T02:16:26.529Z,10.80
2023-11-03T02:18:53.582Z,10.70
2023-11-03T02:21:20.380Z,10.70
2023-11-03T02:23:47.304Z,10.60
2023-11-03T02:26:14.045Z,10.60
2023-11-03T02:28:40.843Z,10.50
2023-11-03T02:31:07.808Z,10.40
2023-11-03T02:33:34.574Z,10.40
2023-11-03T02:36:01.471Z,10.60
2023-11-03T02:38:28.241Z,10.40
2023-11-03T02:40:57.057Z,10.40
2023-11-03T02:43:24.696Z,10.40
2023-11-03T02:45:51.789Z,10.50
2023-11-03T02:48:19.112Z,10.30
2023-11-03T02:50:46.292Z,10.30
2023-11-03T02:53:13.150Z,10.30
2023-11-03T02:55:39.979Z,10.40
2023-11-03T02:58:07.900Z,10.40
2023-11-03T03:00:38.111Z,10.30
2023-11-03T03:03:08.206Z,10.40
2023-11-03T03:05:37.492Z,10.30
2023-11-03T03:08:05.475Z,10.40
2023-11-03T03:10:33.030Z,10.30
2023-11-03T03:13:00.250Z,10.40
2023-11-03T03:15:27.420Z,10.20
2023-11-03T03:17:54.309Z,10.30
2023-11-03T03:20:21.564Z,10.40
2023-11-03T03:22:48.385Z,10.50
2023-11-03T03:25:15.765Z,10.40
2023-11-03T03:27:43.313Z,10.50
2023-11-03T03:30:10.600Z,10.50
2023-11-03T03:32:37.607Z,10.50
2023-11-03T03:35:05.203Z,10.60
2023-11-03T03:37:32.786Z,10.60
2023-11-03T03:39:59.979Z,10.50
2023-11-03T03:42:27.011Z,10.50
2023-11-03T03:44:53.839Z,10.50
2023-11-03T03:47:20.672Z,10.50
2023-11-03T03:49:47.515Z,10.60
2023-11-03T03:52:14.345Z,10.50
2023-11-03T03:54:41.210Z,10.50
2023-11-03T03:57:08.027Z,10.50
2023-11-03T03:59:34.762Z,10.50
2023-11-03T04:02:01.535Z,10.50
2023-11-03T04:04:28.564Z,10.40
2023-11-03T04:07:10.406Z,10.50
2023-11-03T04:09:39.544Z,10.50
2023-11-03T04:12:06.736Z,10.40
2023-11-03T04:14:33.629Z,10.40
2023-11-03T04:17:00.694Z,10.50
2023-11-03T04:19:27.521Z,10.40
2023-11-03T04:21:54.383Z,10.50
2023-11-03T04:24:21.230Z,10.40
2023-11-03T04:26:48.846Z,10.50
2023-11-03T04:29:16.007Z,10.60
2023-11-03T04:31:42.842Z,10.50
2023-11-03T04:34:09.783Z,10.40
2023-11-03T04:36:36.721Z,10.40
2023-11-03T04:39:04.029Z,10.40
2023-11-03T04:41:31.256Z,10.40
2023-11-03T04:43:58.135Z,10.40
2023-11-03T04:46:25.163Z,10.40
2023-11-03T04:48:52.040Z,10.30
2023-11-03T04:51:19.433Z,10.30
2023-11-03T04:53:46.234Z,10.30
2023-11-03T04:56:13.028Z,10.20
2023-11-03T04:58:39.856Z,10.10
2023-11-03T05:01:06.802Z,10.20
2023-11-03T05:03:33.683Z,10.20
2023-11-03T05:06:00.573Z,10.20
2023-11-03T05:08:27.838Z,10.10
2023-11-03T05:10:54.594Z,10.10
2023-11-03T05:13:21.369Z,10.20
2023-11-03T05:15:48.882Z,10.00
2023-11-03T05:18:15.865Z,10.00
2023-11-03T05:20:43.333Z,10.00
2023-11-03T05:23:10.141Z,9.90
2023-11-03T05:25:36.931Z,9.90
2023-11-03T05:28:04.556Z,10.00
2023-11-03T05:30:31.628Z,9.90
2023-11-03T05:32:58.542Z,9.90
2023-11-03T05:35:25.473Z,9.90
2023-11-03T05:37:52.826Z,10.00
2023-11-03T05:40:19.754Z,10.00
2023-11-03T05:42:47.334Z,10.00
2023-11-03T05:45:14.259Z,10.00
2023-11-03T05:47:41.236Z,10.00
2023-11-03T05:50:08.704Z,10.00
2023-11-03T05:52:35.650Z,10.10
2023-11-03T05:55:02.567Z,10.10
2023-11-03T05:57:30.003Z,10.10
2023-11-03T05:59:57.275Z,10.00
2023-11-03T06:02:24.080Z,10.00
2023-11-03T06:04:50.873Z,10.10
2023-11-03T06:07:18.546Z,10.10
2023-11-03T06:09:45.513Z,10.10
2023-11-03T06:12:12.402Z,10.10
2023-11-03T06:14:39.226Z,10.20
2023-11-03T06:17:06.899Z,10.10
2023-11-03T06:19:35.073Z,10.10
2023-11-03T06:22:02.032Z,10.10
2023-11-03T06:24:28.982Z,10.30
2023-11-03T06:27:00.385Z,10.10
2023-11-03T06:29:27.730Z,10.20
2023-11-03T06:31:54.545Z,10.10
2023-11-03T06:34:21.489Z,10.30
2023-11-03T06:36:49.546Z,10.10
2023-11-03T06:39:17.698Z,10.10
2023-11-03T06:41:45.332Z,10.10
2023-11-03T06:44:13.333Z,10.10
2023-11-03T06:46:41.071Z,10.10
2023-11-03T06:49:08.458Z,10.10
2023-11-03T06:51:35.483Z,10.10
2023-11-03T06:54:02.575Z,10.10
2023-11-03T06:56:29.525Z,10.10
2023-11-03T06:58:56.766Z,10.20
2023-11-03T07:01:25.285Z,10.10
2023-11-03T07:03:53.025Z,10.20
2023-11-03T07:06:22.369Z,10.20
2023-11-03T07:08:49.978Z,10.20
2023-11-03T07:11:18.426Z,10.20
2023-11-03T07:13:45.361Z,10.30
2023-11-03T07:16:14.393Z,10.20
2023-11-03T07:18:48.056Z,10.20
2023-11-03T07:21:16.476Z,10.20
2023-11-03T07:23:43.384Z,10.20
2023-11-03T07:26:14.344Z,10.20
2023-11-03T07:28:41.860Z,10.20
2023-11-03T07:31:12.643Z,10.40
2023-11-03T07:33:41.603Z,10.40
2023-11-03T07:36:12.562Z,10.30
2023-11-03T07:38:40.087Z,10.30
2023-11-03T07:41:09.862Z,10.30
2023-11-03T07:43:40.081Z,10.30
2023-11-03T07:46:07.322Z,10.20
2023-11-03T07:48:34.686Z,10.30
2023-11-03T07:51:03.032Z,10.30
2023-11-03T07:53:29.829Z,10.50
2023-11-03T07:55:56.810Z,10.30
2023-11-03T07:58:23.751Z,10.30
2023-11-03T08:00:51.063Z,10.30
2023-11-03T08:03:19.109Z,10.30
2023-11-03T08:05:46.619Z,10.40
2023-11-03T08:08:16.286Z,10.40
2023-11-03T08:10:43.371Z,10.40
2023-11-03T08:13:10.639Z,10.40
2023-11-03T08:15:38.598Z,10.50
2023-11-03T08:18:07.265Z,10.40
2023-11-03T08:20:35.040Z,10.40
2023-11-03T08:23:02.059Z,10.50
2023-11-03T08:25:31.151Z,10.50
2023-11-03T08:27:59.044Z,10.40
2023-11-03T08:30:26.388Z,10.40
2023-11-03T08:32:53.284Z,10.60
2023-11-03T08:35:24.321Z,10.40
2023-11-03T08:37:55.254Z,10.40
2023-11-03T08:40:23.331Z,10.40
2023-11-03T08:42:50.948Z,10.40
2023-11-03T08:45:18.634Z,10.40
2023-11-03T08:47:45.638Z,10.50
2023-11-03T08:50:16.544Z,10.40
2023-11-03T08:52:45.596Z,10.50
2023-11-03T08:55:15.612Z,10.30
2023-11-03T08:57:44.063Z,10.30
2023-11-03T09:00:12.620Z,10.30
2023-11-03T09:02:49.726Z,10.20
2023-11-03T09:05:17.754Z,10.10
2023-11-03T09:07:45.936Z,10.10
2023-11-03T09:10:13.581Z,10.00
2023-11-03T09:12:44.393Z,9.80
2023-11-03T09:15:11.906Z,9.90
2023-11-03T09:17:38.756Z,9.90
2023-11-03T09:20:06.679Z,10.00
2023-11-03T09:22:36.641Z,10.10
2023-11-03T09:25:06.283Z,10.20
2023-11-03T09:27:34.807Z,10.30
2023-11-03T09:30:03.383Z,10.40
2023-11-03T09:32:32.091Z,10.60
2023-11-03T09:34:59.817Z,10.70
2023-11-03T09:37:26.808Z,11.00
2023-11-03T09:39:53.743Z,11.00
2023-11-03T09:42:20.758Z,11.30
2023-11-03T09:44:47.771Z,11.30
2023-11-03T09:47:16.695Z,11.30
2023-11-03T09:49:47.251Z,11.50
2023-11-03T09:52:15.485Z,11.60
2023-11-03T09:54:42.688Z,11.70
2023-11-03T09:57:12.602Z,11.70
2023-11-03T09:59:41.307Z,11.80
2023-11-03T10:02:21.901Z,12.00
2023-11-03T10:04:48.833Z,12.00
2023-11-03T10:07:16.192Z,12.00
2023-11-03T10:09:44.195Z,12.10
2023-11-03T10:12:12.217Z,12.00
2023-11-03T10:14:40.560Z,12.10
2023-11-03T10:17:09.341Z,12.30
2023-11-03T10:19:36.829Z,12.50
2023-11-03T10:22:09.768Z,12.50
2023-11-03T10:24:38.229Z,12.50
2023-11-03T10:27:05.662Z,12.70
2023-11-03T10:29:32.791Z,12.60
2023-11-03T10:31:59.838Z,12.80
2023-11-03T10:34:26.937Z,12.70
2023-11-03T10:36:56.735Z,12.30
2023-11-03T10:39:26.171Z,12.10
2023-11-03T10:41:53.438Z,12.20
2023-11-03T10:44:22.664Z,12.30
2023-11-03T10:47:02.530Z,12.40
2023-11-03T10:49:42.279Z,12.70
2023-11-03T10:52:17.591Z,12.90
2023-11-03T10:55:05.644Z,13.10
2023-11-03T10:57:39.895Z,13.30
2023-11-03T11:00:28.054Z,13.40
2023-11-03T11:03:46.867Z,13.50
2023-11-03T11:06:30.719Z,13.50
2023-11-03T11:09:25.052Z,13.20
2023-11-03T11:11:52.698Z,13.00
2023-11-03T11:14:24.747Z,13.10
2023-11-03T11:16:59.914Z,13.00
2023-11-03T11:19:46.751Z,13.10
2023-11-03T11:22:20.412Z,13.20
2023-11-03T11:24:48.828Z,13.20
2023-11-03T11:27:26.076Z,13.20
2023-11-03T11:30:04.326Z,13.10
2023-11-03T11:32:32.336Z,13.10
2023-11-03T11:34:59.490Z,13.00
2023-11-03T11:37:31.310Z,12.90
2023-11-03T11:40:02.028Z,13.00
2023-11-03T11:42:37.111Z,13.10
2023-11-03T11:45:06.712Z,13.20
2023-11-03T11:47:34.080Z,13.00
2023-11-03T11:50:01.976Z,12.80
2023-11-03T11:52:30.017Z,12.60
2023-11-03T11:54:58.349Z,12.50
2023-11-03T11:57:29.549Z,12.50
2023-11-03T11:59:56.985Z,12.30
2023-11-03T12:02:25.331Z,12.30
2023-11-03T12:04:54.731Z,12.20
2023-11-03T12:07:27.840Z,12.30
2023-11-03T12:09:55.873Z,12.10
2023-11-03T12:12:23.813Z,12.00
2023-11-03T12:14:51.596Z,12.00
2023-11-03T12:17:22.027Z,12.10
2023-11-03T12:19:53.002Z,12.20
2023-11-03T12:22:25.008Z,12.20
2023-11-03T12:24:57.395Z,12.20
2023-11-03T12:27:25.305Z,12.40
2023-11-03T12:30:01.837Z,12.40
2023-11-03T12:32:28.810Z,12.60
2023-11-03T12:34:56.347Z,12.70
2023-11-03T12:37:23.582Z,12.90
2023-11-03T12:39:52.855Z,13.00
2023-11-03T12:42:23.852Z,13.20
2023-11-03T12:44:57.907Z,13.00
2023-11-03T12:47:45.155Z,13.10
2023-11-03T12:50:12.408Z,13.10
2023-11-03T12:52:39.192Z,13.10
2023-11-03T12:55:07.625Z,13.10
2023-11-03T12:57:35.888Z,13.10
2023-11-03T13:00:08.276Z,13.10
2023-11-03T13:02:39.147Z,13.00
2023-11-03T13:05:06.363Z,12.90
2023-11-03T13:07:33.931Z,12.90
2023-11-03T13:10:00.752Z,12.80
2023-11-03T13:12:27.565Z,12.70
2023-11-03T13:14:54.363Z,12.70
2023-11-03T13:17:22.735Z,12.80
2023-11-03T13:19:49.509Z,12.70
2023-11-03T13:22:16.504Z,12.70
2023-11-03T13:24:46.596Z,12.70
2023-11-03T13:27:13.462Z,12.70
2023-11-03T13:29:40.306Z,12.70
2023-11-03T13:32:08.168Z,12.70
2023-11-03T13:34:35.161Z,12.60
2023-11-03T13:37:02.387Z,12.60
2023-11-03T13:39:29.769Z,12.60
2023-11-03T13:41:57.274Z,12.70
2023-11-03T13:44:24.211Z,12.70
2023-11-03T13:46:52.356Z,12.60
2023-11-03T13:49:28.716Z,12.60
2023-11-03T13:52:00.840Z,12.60
2023-11-03T13:54:27.589Z,12.60
2023-11-03T13:56:57.419Z,12.30
2023-11-03T13:59:24.323Z,12.30
2023-11-03T14:01:51.466Z,12.30
2023-11-03T14:04:18.219Z,12.20
2023-11-03T14:06:45.137Z,12.10
2023-11-03T14:09:12.825Z,12.10
2023-11-03T14:11:39.706Z,12.00
2023-11-03T14:14:08.212Z,12.00
2023-11-03T14:16:35.098Z,11.90
2023-11-03T14:19:02.247Z,11.80
2023-11-03T14:21:30.213Z,11.80
2023-11-03T14:23:57.703Z,11.80
2023-11-03T14:26:24.767Z,11.80
2023-11-03T14:28:52.083Z,11.70
2023-11-03T14:31:18.947Z,11.80
2023-11-03T14:33:46.139Z,11.70
2023-11-03T14:36:14.780Z,11.70
2023-11-03T14:38:41.700Z,11.70
2023-11-03T14:41:11.034Z,11.60
2023-11-03T14:43:38.708Z,11.60
2023-11-03T14:46:06.265Z,11.50
2023-11-03T14:48:34.161Z,11.50
2023-11-03T14:51:01.625Z,11.50
2023-11-03T14:53:32.263Z,11.60
2023-11-03T14:56:01.555Z,11.40
2023-11-03T14:58:28.965Z,11.40
2023-11-03T15:00:56.048Z,11.40
2023-11-03T15:03:23.449Z,11.40
2023-11-03T15:05:50.498Z,11.40
2023-11-03T15:08:17.646Z,11.30
2023-11-03T15:10:44.842Z,11.30
2023-11-03T15:13:11.768Z,11.20
2023-11-03T15:15:39.825Z,11.10
2023-11-03T15:18:07.105Z,11.10
2023-11-03T15:20:34.184Z,11.10
2023-11-03T15:23:01.053Z,11.00
2023-11-03T15:25:28.294Z,11.00
2023-11-03T15:27:55.232Z,10.90
2023-11-03T15:30:22.509Z,10.90
2023-11-03T15:32:50.050Z,10.80
2023-11-03T15:35:17.734Z,10.80
2023-11-03T15:37:45.147Z,10.80
2023-11-03T15:40:24.255Z,10.80
2023-11-03T15:42:51.649Z,10.70
2023-11-03T15:45:19.068Z,10.50
2023-11-03T15:47:49.118Z,10.60
2023-11-03T15:50:18.983Z,10.60
2023-11-03T15:52:48.707Z,10.60
2023-11-03T15:55:15.695Z,10.60
2023-11-03T15:57:51.494Z,10.60
2023-11-03T16:00:21.516Z,10.50
2023-11-03T16:02:48.734Z,10.50
2023-11-03T16:05:16.135Z,10.50
2023-11-03T16:07:43.110Z,10.60
2023-11-03T16:10:14.502Z,10.50
2023-11-03T16:12:41.380Z,10.50
2023-11-03T16:15:09.629Z,10.50
2023-11-03T16:17:37.415Z,10.40
2023-11-03T16:20:05.412Z,10.40
2023-11-03T16:22:33.525Z,10.40
2023-11-03T16:25:00.829Z,10.30
2023-11-03T16:27:27.768Z,10.30
2023-11-03T16:29:58.344Z,10.30
2023-11-03T16:32:27.568Z,10.40
2023-11-03T16:34:56.032Z,10.30
2023-11-03T16:37:23.174Z,10.30
2023-11-03T16:39:50.206Z,10.20
2023-11-03T16:42:17.559Z,10.20
2023-11-03T16:44:44.637Z,10.20
2023-11-03T16:47:13.155Z,10.20
2023-11-03T16:49:40.076Z,10.20
2023-11-03T16:52:07.242Z,10.20
2023-11-03T16:54:34.071Z,10.20
2023-11-03T16:57:00.881Z,10.20
2023-11-03T16:59:29.447Z,10.20
2023-11-03T17:02:00.838Z,10.10
2023-11-03T17:04:28.149Z,10.10
2023-11-03T17:06:55.072Z,10.10
2023-11-03T17:09:22.337Z,10.10
2023-11-03T17:11:49.431Z,10.00
2023-11-03T17:14:17.628Z,10.10
2023-11-03T17:16:44.824Z,10.10
2023-11-03T17:19:12.037Z,10.00
2023-11-03T17:21:39.020Z,10.00
2023-11-03T17:24:06.693Z,10.10
2023-11-03T17:26:33.476Z,10.10
2023-11-03T17:29:00.302Z,10.10
2023-11-03T17:31:27.284Z,10.10
2023-11-03T17:33:54.110Z,10.10
2023-11-03T17:36:21.051Z,10.00
2023-11-03T17:38:48.013Z,10.00
2023-11-03T17:41:14.791Z,10.00
2023-11-03T17:43:41.976Z,9.90
2023-11-03T17:46:09.675Z,9.80
2023-11-03T17:48:36.682Z,9.80
2023-11-03T17:51:04.409Z,9.80
2023-11-03T17:53:32.663Z,9.80
2023-11-03T17:56:00.370Z,9.80
2023-11-03T17:58:27.266Z,9.80
2023-11-03T18:00:58.285Z,9.90
2023-11-03T18:03:25.281Z,9.90
2023-11-03T18:05:53.258Z,9.80
2023-11-03T18:08:21.403Z,9.80
2023-11-03T18:10:48.802Z,9.80
2023-11-03T18:13:16.333Z,9.80
2023-11-03T18:15:43.459Z,9.80
2023-11-03T18:18:10.783Z,9.70
2023-11-03T18:20:39.979Z,9.70
2023-11-03T18:23:09.233Z,9.70
2023-11-03T18:25:39.400Z,9.70
2023-11-03T18:28:06.850Z,9.70
2023-11-03T18:30:34.480Z,9.70
2023-11-03T18:33:02.156Z,9.70
2023-11-03T18:35:30.580Z,9.70
2023-11-03T18:37:57.627Z,9.60
2023-11-03T18:40:28.846Z,9.60
2023-11-03T18:42:56.220Z,9.50
2023-11-03T18:45:24.835Z,9.50
2023-11-03T18:47:51.884Z,9.50
2023-11-03T18:52:52.077Z,9.50
2023-11-03T18:56:14.056Z,9.50
2023-11-03T18:58:47.543Z,9.50
2023-11-03T19:02:09.154Z,9.50
2023-11-03T19:08:42.206Z,9.40
2023-11-03T19:11:09.638Z,9.30
2023-11-03T19:13:37.084Z,9.30
2023-11-03T19:16:04.840Z,9.30
2023-11-03T19:18:37.177Z,9.30
2023-11-03T19:21:06.056Z,9.30
2023-11-03T19:23:38.086Z,9.20
2023-11-03T19:26:05.558Z,9.20
2023-11-03T19:28:33.978Z,9.10
2023-11-03T19:31:05.187Z,9.20
2023-11-03T19:33:33.198Z,9.10
2023-11-03T19:36:01.511Z,9.00
2023-11-03T19:38:29.189Z,9.10
2023-11-03T19:40:56.888Z,9.10
2023-11-03T19:43:24.229Z,9.00
2023-11-03T19:45:51.481Z,9.00
2023-11-03T19:48:19.162Z,9.00
2023-11-03T19:50:47.459Z,9.00
2023-11-03T19:53:17.193Z,8.90
2023-11-03T19:55:45.551Z,8.90
2023-11-03T19:58:14.604Z,8.90
2023-11-03T20:00:48.744Z,8.80
2023-11-03T20:03:16.577Z,8.80
2023-11-03T20:05:43.826Z,8.80
2023-11-03T20:08:11.531Z,8.90
2023-11-03T20:10:38.974Z,8.80
2023-11-03T20:13:07.576Z,8.80
2023-11-03T20:15:34.987Z,8.80
2023-11-03T20:18:04.626Z,8.80
2023-11-03T20:20:31.697Z,8.80
2023-11-03T20:23:00.779Z,8.80
2023-11-03T20:25:28.100Z,8.80
2023-11-03T20:27:55.693Z,8.80
2023-11-03T20:30:22.739Z,8.80
2023-11-03T20:32:50.035Z,8.80
2023-11-03T20:35:19.038Z,8.80
2023-11-03T20:37:46.021Z,8.80
2023-11-03T20:40:13.648Z,8.80
2023-11-03T20:42:40.715Z,8.80
2023-11-03T20:45:08.250Z,8.80
2023-11-03T20:47:35.569Z,8.70
2023-11-03T20:50:03.121Z,8.70
2023-11-03T20:52:34.680Z,8.60
2023-11-03T20:55:01.791Z,8.70
2023-11-03T20:57:28.742Z,8.70
2023-11-03T20:59:56.134Z,8.70
2023-11-03T21:02:23.365Z,8.70
2023-11-03T21:04:50.828Z,8.60
2023-11-03T21:07:18.008Z,8.60
2023-11-03T21:09:45.168Z,8.60
2023-11-03T21:12:12.376Z,8.60
2023-11-03T21:14:39.464Z,8.60
2023-11-03T21:17:07.964Z,8.60
2023-11-03T21:19:37.564Z,8.60
2023-11-03T21:22:07.577Z,8.60
2023-11-03T21:24:35.555Z,8.60
2023-11-03T21:27:06.059Z,8.60
2023-11-03T21:29:33.444Z,8.60
2023-11-03T21:32:00.826Z,8.40
2023-11-03T21:34:27.959Z,8.60
2023-11-03T21:36:56.058Z,8.50
2023-11-03T21:39:23.133Z,8.50
2023-11-03T21:41:50.269Z,8.50
2023-11-03T21:44:17.375Z,8.50
2023-11-03T21:46:44.633Z,8.50
2023-11-03T21:49:11.997Z,8.50
2023-11-03T21:51:39.241Z,8.40
2023-11-03T21:54:07.664Z,8.40
2023-11-03T21:56:35.077Z,8.30
2023-11-03T21:59:02.520Z,8.30
2023-11-03T22:01:29.785Z,8.20
2023-11-03T22:03:57.160Z,8.30
2023-11-03T22:06:24.613Z,8.30
2023-11-03T22:08:57.340Z,8.20
2023-11-03T22:11:31.533Z,8.20
2023-11-03T22:14:15.383Z,8.20
2023-11-03T22:16:42.604Z,8.20
2023-11-03T22:19:09.648Z,8.10
2023-11-03T22:21:37.851Z,8.10
2023-11-03T22:24:05.561Z,8.10
2023-11-03T22:26:39.683Z,8.10
2023-11-03T22:29:11.561Z,8.00
2023-11-03T22:31:49.548Z,8.00
2023-11-03T22:34:18.241Z,8.00
2023-11-03T22:36:45.815Z,8.00
2023-11-03T22:39:14.951Z,7.90
2023-11-03T22:41:42.302Z,7.90
2023-11-03T22:44:09.359Z,7.80
2023-11-03T22:46:36.705Z,7.90
2023-11-03T22:49:03.966Z,7.70
2023-11-03T22:51:30.894Z,7.70
2023-11-03T22:53:58.060Z,7.70
2023-11-03T22:56:25.407Z,7.60
2023-11-03T22:58:52.904Z,7.60
2023-11-03T23:01:20.503Z,7.60
2023-11-03T23:03:50.014Z,7.60
2023-11-03T23:06:19.107Z,7.60
2023-11-03T23:08:46.807Z,7.70
2023-11-03T23:11:13.872Z,7.70
2023-11-03T23:13:40.945Z,7.60
2023-11-03T23:16:09.308Z,7.60
2023-11-03T23:18:36.581Z,7.50
2023-11-03T23:21:04.046Z,7.50
2023-11-03T23:23:31.629Z,7.50
2023-11-03T23:25:59.094Z,7.60
2023-11-03T23:28:26.276Z,7.40
2023-11-03T23:30:53.339Z,7.30
2023-11-03T23:33:20.633Z,7.30
2023-11-03T23:35:47.750Z,7.30
2023-11-03T23:38:14.829Z,7.30
2023-11-03T23:40:41.837Z,7.20
2023-11-03T23:43:08.974Z,7.20
2023-11-03T23:45:35.918Z,7.20
2023-11-03T23:48:03.139Z,7.20
2023-11-03T23:50:29.976Z,7.10
2023-11-03T23:52:57.884Z,7.10
2023-11-03T23:55:24.783Z,7.10
2023-11-03T23:57:52.178Z,7.10
